Time;durP1;ratioP1;P1;durP2;ratioP2;P2;SDS_P1;SDS_P2;PMS_P1;PMS_P2;Temp;Humidity;BMP_temperature;BMP_pressure;BME280_temperature;BME280_humidity;BME280_pressure;Samples;Min_cycle;Max_cycle;Signal;HPM_P1;HPM_P2
2021/11/22 00:00:19;;;;;;;8.48;4.70;;;4.90;99.90;;;;;;21143983;28;20052;-54
2021/11/22 00:10:22;;;;;;;37.33;7.65;;;4.90;99.90;;;;;;21143121;28;20031;-52
2021/11/22 00:20:25;;;;;;;250.13;14.02;;;4.90;99.90;;;;;;21141590;28;20039;-51
2021/11/22 00:30:28;;;;;;;270.73;15.50;;;5.00;99.90;;;;;;21141601;28;20035;-49
2021/11/22 00:40:37;;;;;;;174.55;11.10;;;5.00;99.90;;;;;;21140581;28;20035;-52
2021/11/22 00:50:39;;;;;;;9.80;4.30;;;5.00;99.90;;;;;;21140129;28;20032;-50
2021/11/22 01:00:42;;;;;;;5.22;3.33;;;4.90;99.90;;;;;;21138800;28;20077;-53
2021/11/22 01:10:45;;;;;;;5.85;3.22;;;4.90;99.90;;;;;;21138550;28;20097;-51
2021/11/22 01:20:48;;;;;;;2.80;1.92;;;4.90;99.90;;;;;;21120641;28;20478;-49
2021/11/22 01:30:51;;;;;;;3.85;2.20;;;4.90;99.90;;;;;;21136862;28;20057;-50
2021/11/22 01:40:54;;;;;;;2.65;1.10;;;4.90;99.90;;;;;;21136038;28;20429;-53
2021/11/22 01:50:57;;;;;;;2.70;0.98;;;4.90;99.90;;;;;;21135210;28;20031;-51
2021/11/22 02:01:00;;;;;;;1.92;0.60;;;4.90;99.90;;;;;;21134469;28;20109;-50
2021/11/22 02:11:06;;;;;;;1.20;0.60;;;4.80;99.90;;;;;;21134580;28;20052;-51
2021/11/22 02:21:08;;;;;;;0.73;0.40;;;4.80;99.90;;;;;;21133737;28;20031;-52
2021/11/22 02:31:12;;;;;;;1.02;0.40;;;4.80;99.90;;;;;;21133395;28;20431;-48
2021/11/22 02:41:18;;;;;;;3.60;0.80;;;4.80;99.90;;;;;;21137276;28;20027;-51
2021/11/22 02:51:20;;;;;;;2.63;1.13;;;4.70;99.90;;;;;;21168343;28;20443;-49
2021/11/22 03:01:23;;;;;;;1.90;1.10;;;4.80;99.90;;;;;;21148539;28;20076;-49
2021/11/22 03:11:26;;;;;;;2.80;1.63;;;4.80;99.90;;;;;;21148001;28;20088;-51
2021/11/22 03:21:28;;;;;;;2.42;1.40;;;4.80;99.90;;;;;;21147675;28;20027;-50
2021/11/22 03:31:32;;;;;;;4.22;2.40;;;4.80;99.90;;;;;;21146463;28;20032;-48
2021/11/22 03:41:36;;;;;;;3.17;1.88;;;4.80;99.90;;;;;;21145521;28;20089;-48
2021/11/22 03:51:39;;;;;;;4.88;2.38;;;4.80;99.90;;;;;;21143418;28;20096;-48
2021/11/22 04:01:41;;;;;;;3.30;2.17;;;4.80;99.90;;;;;;21076498;28;20044;-49
2021/11/22 04:11:45;;;;;;;3.30;2.00;;;4.80;99.90;;;;;;21075741;28;20035;-49
2021/11/22 04:21:48;;;;;;;4.82;2.35;;;4.80;99.90;;;;;;21075139;28;20089;-50
2021/11/22 04:31:52;;;;;;;3.13;1.90;;;4.90;99.90;;;;;;21075410;28;20040;-53
2021/11/22 04:41:54;;;;;;;3.38;2.10;;;4.90;99.90;;;;;;21073255;28;20032;-52
2021/11/22 04:51:56;;;;;;;3.67;2.00;;;4.90;99.90;;;;;;21072622;28;20082;-48
2021/11/22 05:01:59;;;;;;;6.80;3.17;;;4.90;99.90;;;;;;21071303;28;20044;-51
2021/11/22 05:12:02;;;;;;;5.50;2.90;;;4.90;99.90;;;;;;21070727;28;20028;-50
2021/11/22 05:22:07;;;;;;;379.02;18.27;;;4.90;99.90;;;;;;21069890;28;20438;-49
2021/11/22 05:32:16;;;;;;;29.63;3.83;;;4.90;99.90;;;;;;21069497;28;20040;-50
2021/11/22 05:42:19;;;;;;;3.67;2.30;;;4.90;99.90;;;;;;21068647;28;20028;-48
2021/11/22 05:52:23;;;;;;;253.30;14.15;;;4.90;99.90;;;;;;21068087;28;20032;-48
2021/11/22 06:02:26;;;;;;;13.52;3.10;;;5.00;99.90;;;;;;21067501;28;20056;-50
2021/11/22 06:12:28;;;;;;;4.50;2.20;;;4.90;99.90;;;;;;21066970;28;20378;-48
2021/11/22 06:22:31;;;;;;;1.50;0.85;;;4.90;99.90;;;;;;21066859;28;20050;-48
2021/11/22 06:32:35;;;;;;;7.13;2.38;;;4.90;99.90;;;;;;21067073;28;20040;-50
2021/11/22 06:42:38;;;;;;;5.60;2.17;;;4.90;99.90;;;;;;21032652;28;20491;-49
2021/11/22 06:52:40;;;;;;;3.78;2.20;;;4.90;99.90;;;;;;21065124;28;20032;-49
2021/11/22 07:02:44;;;;;;;62.50;4.85;;;4.90;99.90;;;;;;21064151;28;20484;-50
2021/11/22 07:12:47;;;;;;;93.35;6.07;;;5.00;99.90;;;;;;21064916;28;20396;-54
2021/11/22 07:22:50;;;;;;;3.90;2.22;;;5.00;99.90;;;;;;21064499;28;20388;-52
2021/11/22 07:32:53;;;;;;;4.22;1.90;;;5.10;99.90;;;;;;21076160;28;20032;-52
2021/11/22 07:42:57;;;;;;;1.70;1.05;;;5.20;99.90;;;;;;21078332;28;20044;-49
2021/11/22 07:53:00;;;;;;;260.40;14.80;;;5.40;99.90;;;;;;21078540;28;20089;-50
2021/11/22 08:03:03;;;;;;;3.25;1.40;;;5.50;99.90;;;;;;21076498;28;20093;-50
2021/11/22 08:13:09;;;;;;;2.22;1.45;;;5.50;99.90;;;;;;21075747;28;20032;-49
2021/11/22 08:23:12;;;;;;;3.05;1.70;;;5.50;99.90;;;;;;21075042;28;20028;-50
2021/11/22 08:33:17;;;;;;;2.22;1.10;;;5.50;99.90;;;;;;21074433;28;20456;-52
2021/11/22 08:43:20;;;;;;;1.60;0.95;;;5.70;99.90;;;;;;21073169;28;20039;-52
2021/11/22 08:53:24;;;;;;;2.20;1.25;;;5.90;99.90;;;;;;21072962;28;20113;-48
2021/11/22 09:03:27;;;;;;;1.42;1.00;;;6.40;99.90;;;;;;21139523;28;20039;-49
2021/11/22 09:13:29;;;;;;;7.88;1.48;;;7.10;99.90;;;;;;21139345;28;20392;-50
2021/11/22 09:23:32;;;;;;;3.30;1.52;;;7.90;99.90;;;;;;21138147;28;20043;-51
2021/11/22 09:33:34;;;;;;;2.05;1.33;;;8.00;99.90;;;;;;21069790;28;20360;-51
2021/11/22 09:43:41;;;;;;;2.25;1.20;;;8.00;99.90;;;;;;21068789;28;20032;-50
2021/11/22 09:53:45;;;;;;;2.13;1.48;;;8.00;99.90;;;;;;21067598;28;20052;-53
2021/11/22 10:04:14;;;;;;;2.38;1.70;;;7.90;99.90;;;;;;21050512;28;20487;-51
2021/11/22 10:14:28;;;;;;;4.95;2.80;;;7.70;99.90;;;;;;21050292;28;20088;-51
2021/11/22 10:24:31;;;;;;;3.58;2.35;;;7.20;99.90;;;;;;21049684;28;20028;-51
2021/11/22 10:34:38;;;;;;;2.78;1.77;;;6.90;99.90;;;;;;21049074;28;20039;-49
2021/11/22 10:44:41;;;;;;;3.65;1.70;;;6.70;99.90;;;;;;21048394;28;20036;-52
2021/11/22 10:54:57;;;;;;;5.72;3.03;;;6.60;99.90;;;;;;21059682;28;20052;-51
2021/11/22 11:04:59;;;;;;;6.90;3.72;;;6.60;99.90;;;;;;21140734;28;20047;-51
2021/11/22 11:15:10;;;;;;;7.93;4.20;;;6.60;99.90;;;;;;21147629;28;20081;-52
2021/11/22 11:25:15;;;;;;;6.88;4.10;;;6.50;99.90;;;;;;21146943;28;20085;-51
2021/11/22 11:35:20;;;;;;;7.68;4.10;;;6.60;99.90;;;;;;21078945;28;20113;-49
2021/11/22 11:45:32;;;;;;;6.10;3.55;;;6.70;99.90;;;;;;21078085;28;20476;-52
2021/11/22 11:55:37;;;;;;;5.13;3.15;;;6.70;99.90;;;;;;21096058;28;20563;-49
2021/11/22 12:05:48;;;;;;;5.10;2.92;;;7.00;99.90;;;;;;21143921;28;20471;-51
2021/11/22 12:15:55;;;;;;;5.88;3.53;;;7.10;99.90;;;;;;21143921;28;20486;-50
2021/11/22 12:26:01;;;;;;;5.32;3.17;;;7.30;99.90;;;;;;21143006;28;20035;-53
2021/11/22 12:36:25;;;;;;;2.20;1.10;;;7.50;99.90;;;;;;21142404;28;20032;-51
2021/11/22 12:46:38;;;;;;;5.10;1.02;;;7.60;99.90;;;;;;21123959;28;20031;-49
2021/11/22 12:56:41;;;;;;;4.78;1.70;;;7.40;99.90;;;;;;21122871;28;20101;-49
2021/11/22 13:06:45;;;;;;;2.00;1.35;;;7.20;99.90;;;;;;21123821;28;20487;-51
2021/11/22 13:16:51;;;;;;;2.70;1.20;;;7.10;99.90;;;;;;21138682;28;20032;-50
2021/11/22 13:26:55;;;;;;;8.90;4.88;;;7.10;99.90;;;;;;21138318;28;20100;-50
2021/11/22 13:37:08;;;;;;;8.73;5.10;;;7.10;99.90;;;;;;21136937;28;20115;-53
2021/11/22 13:47:16;;;;;;;7.38;4.20;;;7.10;99.90;;;;;;21136253;28;20106;-53
2021/11/22 13:57:21;;;;;;;6.13;3.20;;;7.20;99.90;;;;;;21135538;28;20459;-50
2021/11/22 14:07:40;;;;;;;3.38;1.83;;;7.30;99.90;;;;;;21134336;28;20104;-49
2021/11/22 14:17:48;;;;;;;4.00;1.77;;;7.30;99.90;;;;;;21134435;28;20124;-50
2021/11/22 14:27:55;;;;;;;3.13;1.70;;;6.90;99.90;;;;;;21134014;28;20036;-50
2021/11/22 14:38:14;;;;;;;2.40;1.45;;;6.70;99.90;;;;;;21139378;28;20351;-50
2021/11/22 14:48:21;;;;;;;4.45;1.73;;;6.50;99.90;;;;;;21150098;28;20076;-49
2021/11/22 14:58:47;;;;;;;3.20;2.00;;;6.40;99.90;;;;;;21149610;28;20110;-49
2021/11/22 15:09:02;;;;;;;3.22;1.63;;;6.30;99.90;;;;;;21148499;28;20036;-49
2021/11/22 15:19:07;;;;;;;3.15;1.50;;;6.20;99.90;;;;;;21148089;28;20085;-50
2021/11/22 15:29:16;;;;;;;1.38;0.93;;;6.20;99.90;;;;;;21147059;28;20391;-50
2021/11/22 15:39:22;;;;;;;3.25;1.48;;;6.10;99.90;;;;;;21146230;28;20052;-55
2021/11/22 15:49:25;;;;;;;3.15;1.40;;;6.00;99.90;;;;;;21145725;28;20391;-49
2021/11/22 15:59:28;;;;;;;4.05;1.45;;;5.90;99.90;;;;;;21144411;28;20096;-48
2021/11/22 16:09:34;;;;;;;2.83;1.75;;;5.80;99.90;;;;;;21127253;28;20036;-49
2021/11/22 16:19:37;;;;;;;5.40;2.10;;;5.70;99.90;;;;;;21142914;28;20039;-49
2021/11/22 16:29:42;;;;;;;4.40;2.10;;;5.60;99.90;;;;;;21134565;28;20081;-49
2021/11/22 16:39:47;;;;;;;3.33;1.80;;;5.60;99.90;;;;;;21141231;28;20101;-49
2021/11/22 16:49:51;;;;;;;3.22;1.83;;;5.60;99.90;;;;;;21140672;28;20444;-51
2021/11/22 16:59:54;;;;;;;2.88;1.75;;;5.60;99.90;;;;;;21139105;28;20052;-54
2021/11/22 17:09:57;;;;;;;5.65;2.20;;;5.60;99.90;;;;;;21139243;28;20036;-53
2021/11/22 17:20:02;;;;;;;4.88;2.08;;;5.60;99.90;;;;;;21121943;28;20108;-51
2021/11/22 17:30:09;;;;;;;4.88;2.42;;;5.60;99.90;;;;;;21138762;28;20032;-50
2021/11/22 17:40:14;;;;;;;4.30;2.05;;;5.50;99.90;;;;;;21136523;28;20061;-52
2021/11/22 17:50:18;;;;;;;3.50;1.98;;;5.40;99.90;;;;;;21135644;28;20069;-51
2021/11/22 18:00:23;;;;;;;4.80;2.17;;;5.40;99.90;;;;;;21135013;28;20039;-49
2021/11/22 18:10:26;;;;;;;3.35;1.80;;;5.40;99.90;;;;;;21133999;28;20035;-51
2021/11/22 18:20:30;;;;;;;4.57;1.52;;;5.40;99.90;;;;;;21117196;28;20040;-51
2021/11/22 18:30:34;;;;;;;2.05;1.20;;;5.30;99.90;;;;;;21134826;28;20102;-49
2021/11/22 18:40:40;;;;;;;2.42;1.20;;;5.40;99.90;;;;;;21132691;28;20095;-50
2021/11/22 18:50:43;;;;;;;3.22;1.42;;;5.40;99.90;;;;;;21132676;28;20031;-51
2021/11/22 19:00:46;;;;;;;3.55;1.65;;;5.30;99.90;;;;;;21131927;28;20070;-51
2021/11/22 19:10:54;;;;;;;4.50;1.77;;;5.20;99.90;;;;;;21131943;28;20089;-49
2021/11/22 19:20:56;;;;;;;2.78;1.40;;;5.20;99.90;;;;;;21132225;28;20065;-53
2021/11/22 19:30:59;;;;;;;2.53;1.50;;;5.10;99.90;;;;;;21165264;28;20032;-48
2021/11/22 19:41:04;;;;;;;2.80;1.80;;;5.10;99.90;;;;;;21147206;28;20040;-49
2021/11/22 19:51:08;;;;;;;2.47;1.30;;;5.00;99.90;;;;;;21145513;28;20317;-50
2021/11/22 20:01:10;;;;;;;4.40;1.30;;;5.00;99.90;;;;;;21144420;28;20065;-51
2021/11/22 20:11:15;;;;;;;2.60;1.60;;;4.90;99.90;;;;;;21144288;28;20031;-48
2021/11/22 20:21:18;;;;;;;2.20;1.27;;;4.90;99.90;;;;;;21161862;28;20475;-50
2021/11/22 20:31:22;;;;;;;2.28;1.15;;;5.00;99.90;;;;;;21142070;28;20032;-51
2021/11/22 20:41:27;;;;;;;2.47;1.40;;;5.00;99.90;;;;;;21140953;28;20371;-50
2021/11/22 20:51:31;;;;;;;4.25;1.48;;;5.10;99.90;;;;;;21140717;28;20447;-51
2021/11/22 21:01:34;;;;;;;2.45;1.30;;;5.10;99.90;;;;;;21139788;28;20077;-52
2021/11/22 21:11:39;;;;;;;2.40;1.30;;;5.10;99.90;;;;;;21139329;28;20027;-49
2021/11/22 21:21:43;;;;;;;2.72;1.35;;;5.10;99.90;;;;;;21138061;28;20044;-51
2021/11/22 21:31:47;;;;;;;2.28;1.30;;;5.00;99.90;;;;;;21137611;28;20066;-54
2021/11/22 21:41:50;;;;;;;1.75;1.05;;;4.90;99.90;;;;;;21137487;28;20084;-53
2021/11/22 21:51:53;;;;;;;3.15;1.13;;;4.90;99.90;;;;;;21136212;28;20028;-51
2021/11/22 22:01:56;;;;;;;2.38;1.00;;;4.90;99.90;;;;;;21130156;28;20108;-52
2021/11/22 22:12:03;;;;;;;2.90;1.45;;;4.90;99.90;;;;;;21135240;28;20096;-52
2021/11/22 22:22:05;;;;;;;2.63;1.00;;;4.80;99.90;;;;;;21134045;28;20077;-52
2021/11/22 22:32:08;;;;;;;3.33;1.08;;;4.90;99.90;;;;;;21133438;28;20035;-51
2021/11/22 22:42:11;;;;;;;1.55;0.93;;;4.80;99.90;;;;;;21132873;28;20081;-51
2021/11/22 22:52:16;;;;;;;3.80;1.70;;;4.80;99.90;;;;;;20889476;28;20103;-50
2021/11/22 23:02:19;;;;;;;1.88;1.23;;;4.70;99.90;;;;;;20883611;28;20618;-50
2021/11/22 23:12:22;;;;;;;2.60;1.50;;;4.70;99.90;;;;;;20888313;28;20049;-51
2021/11/22 23:22:24;;;;;;;3.03;1.60;;;4.70;99.90;;;;;;20887357;28;20409;-50
2021/11/22 23:32:30;;;;;;;2.80;1.13;;;4.60;99.90;;;;;;21017683;28;20039;-50
2021/11/22 23:42:45;;;;;;;2.13;1.17;;;4.60;99.90;;;;;;21145716;28;20036;-51
2021/11/22 23:52:49;;;;;;;1.70;1.08;;;4.60;99.90;;;;;;21144720;28;20100;-51
